Astor, Florida
Current Conditions -  °F | °C
As of 8:35 PM on Wednesday 22 Oct 2014 (Local Time) from KDED Reporting Station
Clear Clear  
Wind Chill: 19°   Ceiling: Unl
Heat Index: 19°   Visibility: 10mi
Dew Point: 14°   Wind: 6mph
Humidity: 73%   Direction: 10°N
Pressure: 30.02"   Gusts: NA
Location:  29.15°N, 81.53°W
Report Text: KDED 230035Z AUTO 01005KT 10SM CLR 19/14 A3002 RMK AO1
Loading
Personal Weather Stations






























Interactive Weather Map
Tropical Storm Tracking
New forecast layout! Learn more

10-Day Weather Forecast

Advertisements
Track Severe Weather on mobile